Time;durP1;ratioP1;P1;durP2;ratioP2;P2;SDS_P1;SDS_P2;PMS_P1;PMS_P2;Temp;Humidity;BMP_temperature;BMP_pressure;BME280_temperature;BME280_humidity;BME280_pressure;Samples;Min_cycle;Max_cycle;Signal;HPM_P1;HPM_P2
2021/08/23 00:00:11;;;;;;;33.53;24.10;;;16.90;99.90;;;;;;4978612;28;20461;-80
2021/08/23 00:02:38;;;;;;;34.33;25.33;;;17.00;99.90;;;;;;4977669;28;20489;-78
2021/08/23 00:05:05;;;;;;;35.50;26.77;;;16.90;99.90;;;;;;4976645;28;20481;-79
2021/08/23 00:07:32;;;;;;;35.47;26.87;;;16.90;99.90;;;;;;4976815;28;20442;-79
2021/08/23 00:09:59;;;;;;;34.77;26.70;;;16.90;99.90;;;;;;4976940;28;20457;-79
2021/08/23 00:12:26;;;;;;;30.93;23.67;;;16.90;99.90;;;;;;4981008;28;20493;-79
2021/08/23 00:14:53;;;;;;;38.17;29.33;;;16.90;99.90;;;;;;4984324;28;20485;-79
2021/08/23 00:17:21;;;;;;;39.53;27.70;;;16.90;99.90;;;;;;4984720;28;20449;-79
2021/08/23 00:19:48;;;;;;;41.20;29.07;;;16.90;99.90;;;;;;4979616;28;20446;-78
2021/08/23 00:22:22;;;;;;;37.10;29.37;;;17.00;99.90;;;;;;4982227;28;20497;-79
2021/08/23 00:24:49;;;;;;;33.37;26.60;;;16.80;99.90;;;;;;4980585;28;20456;-79
2021/08/23 00:27:16;;;;;;;40.40;30.10;;;16.90;99.90;;;;;;4980300;28;20449;-78
2021/08/23 00:29:43;;;;;;;36.27;29.90;;;16.90;99.90;;;;;;4981221;28;20473;-79
2021/08/23 00:32:10;;;;;;;40.53;30.70;;;16.80;99.90;;;;;;4980885;28;20473;-79
2021/08/23 00:34:38;;;;;;;42.07;30.43;;;16.80;99.90;;;;;;4980599;28;20454;-79
2021/08/23 00:37:05;;;;;;;43.23;31.37;;;16.80;99.90;;;;;;4979782;28;20492;-79
2021/08/23 00:39:32;;;;;;;45.17;31.90;;;16.80;99.90;;;;;;4980406;28;20477;-79
2021/08/23 00:41:59;;;;;;;45.10;30.03;;;16.80;99.90;;;;;;4979621;28;20486;-79
2021/08/23 00:44:25;;;;;;;43.97;32.53;;;16.90;99.90;;;;;;4979520;28;20820;-79
2021/08/23 00:46:52;;;;;;;39.40;30.33;;;16.90;99.90;;;;;;4979572;28;20449;-79
2021/08/23 00:49:18;;;;;;;41.50;30.00;;;16.80;99.90;;;;;;4980128;28;20480;-79
2021/08/23 00:51:46;;;;;;;40.50;29.57;;;16.90;99.90;;;;;;4979484;28;20474;-78
2021/08/23 00:54:14;;;;;;;39.60;29.57;;;16.80;99.90;;;;;;4993338;28;20444;-78
2021/08/23 00:56:40;;;;;;;44.03;32.03;;;16.80;99.90;;;;;;4987125;28;20814;-80
2021/08/23 00:59:08;;;;;;;41.33;30.53;;;16.80;99.90;;;;;;4980162;28;20484;-79
2021/08/23 01:01:46;;;;;;;44.53;31.73;;;16.80;99.90;;;;;;4979635;28;20474;-79
2021/08/23 01:04:20;;;;;;;49.50;33.17;;;16.90;99.90;;;;;;4979494;28;20489;-79
2021/08/23 01:06:48;;;;;;;40.40;31.57;;;16.80;99.90;;;;;;4979564;28;20461;-79
2021/08/23 01:09:17;;;;;;;40.57;30.80;;;16.80;99.90;;;;;;4978970;28;20460;-79
2021/08/23 01:11:50;;;;;;;46.80;32.77;;;16.80;99.90;;;;;;4979243;28;20505;-80
2021/08/23 01:14:16;;;;;;;51.50;35.00;;;16.80;99.90;;;;;;4979345;28;20477;-79
2021/08/23 01:16:43;;;;;;;46.97;32.70;;;16.90;99.90;;;;;;4979150;28;20484;-79
2021/08/23 01:19:10;;;;;;;40.57;30.70;;;16.90;99.90;;;;;;4978920;28;20496;-80
2021/08/23 01:21:37;;;;;;;38.77;30.13;;;16.80;99.90;;;;;;4978642;28;20473;-79
2021/08/23 01:24:10;;;;;;;43.20;31.87;;;16.60;99.90;;;;;;4981254;28;20497;-79
2021/08/23 01:26:42;;;;;;;44.40;30.90;;;16.80;99.90;;;;;;4979584;28;20449;-79
2021/08/23 01:29:16;;;;;;;35.20;28.37;;;16.90;99.90;;;;;;4978557;28;20469;-78
2021/08/23 01:31:50;;;;;;;37.47;28.47;;;16.80;99.90;;;;;;4977843;28;20472;-79
2021/08/23 01:34:19;;;;;;;42.13;29.93;;;16.80;99.90;;;;;;4978140;28;20465;-79
2021/08/23 01:36:45;;;;;;;43.50;31.37;;;16.80;99.90;;;;;;4978385;28;20485;-78
2021/08/23 01:39:12;;;;;;;39.93;29.33;;;16.80;99.90;;;;;;4978240;28;20481;-79
2021/08/23 01:41:38;;;;;;;35.23;29.03;;;16.90;99.90;;;;;;4977604;28;20684;-80
2021/08/23 01:44:06;;;;;;;32.30;25.97;;;16.90;99.90;;;;;;4978139;28;20485;-78
2021/08/23 01:46:33;;;;;;;37.20;28.33;;;17.00;99.90;;;;;;4977740;28;20516;-78
2021/08/23 01:49:01;;;;;;;38.77;28.30;;;16.90;99.90;;;;;;4977965;28;20509;-79
2021/08/23 01:51:29;;;;;;;35.73;27.20;;;16.90;99.90;;;;;;4977107;28;20497;-78
2021/08/23 01:53:56;;;;;;;36.53;27.57;;;16.90;99.90;;;;;;4979600;28;20457;-78
2021/08/23 01:56:23;;;;;;;31.63;26.00;;;16.80;99.90;;;;;;4982493;28;20488;-78
2021/08/23 01:58:50;;;;;;;27.60;24.60;;;16.90;99.90;;;;;;4982108;28;20450;-78
2021/08/23 02:01:17;;;;;;;31.03;23.83;;;16.80;99.90;;;;;;4979254;28;20506;-78
2021/08/23 02:03:43;;;;;;;33.77;25.53;;;16.80;99.90;;;;;;4977988;28;20481;-79
2021/08/23 02:06:10;;;;;;;30.57;24.80;;;16.90;99.90;;;;;;4977345;28;20585;-77
2021/08/23 02:08:38;;;;;;;30.83;23.80;;;16.90;99.90;;;;;;4976990;28;20481;-78
2021/08/23 02:11:04;;;;;;;29.03;23.40;;;16.90;99.90;;;;;;4976194;28;20996;-78
2021/08/23 02:13:31;;;;;;;28.17;24.40;;;16.90;99.90;;;;;;4976922;28;20528;-78
2021/08/23 02:15:57;;;;;;;29.93;24.63;;;16.90;99.90;;;;;;4977500;28;20454;-78
2021/08/23 02:18:24;;;;;;;28.70;24.43;;;16.80;99.90;;;;;;4977437;28;20449;-79
2021/08/23 02:20:51;;;;;;;35.50;24.93;;;16.90;99.90;;;;;;4977144;28;20509;-78
2021/08/23 02:23:17;;;;;;;29.43;24.23;;;16.90;99.90;;;;;;4981323;28;20517;-78
2021/08/23 02:25:45;;;;;;;27.90;22.90;;;16.90;99.90;;;;;;4978848;28;20473;-78
2021/08/23 02:28:12;;;;;;;24.73;21.67;;;16.90;99.90;;;;;;4977458;28;20486;-79
2021/08/23 02:30:39;;;;;;;24.23;21.60;;;16.90;99.90;;;;;;4990078;28;20450;-77
2021/08/23 02:33:06;;;;;;;24.70;21.43;;;16.90;99.90;;;;;;4987147;28;20835;-79
2021/08/23 02:35:33;;;;;;;24.67;21.47;;;16.80;99.90;;;;;;4978866;28;20504;-79
2021/08/23 02:37:59;;;;;;;26.43;21.60;;;16.80;99.90;;;;;;4977370;28;20449;-79
2021/08/23 02:40:26;;;;;;;24.73;22.10;;;16.80;99.90;;;;;;4977188;28;20512;-78
2021/08/23 02:42:54;;;;;;;25.30;21.13;;;16.90;99.90;;;;;;4976499;28;20557;-79
2021/08/23 02:45:20;;;;;;;24.13;21.10;;;16.90;99.90;;;;;;4977348;28;20888;-79
2021/08/23 02:47:47;;;;;;;21.33;19.10;;;16.90;99.90;;;;;;4977872;28;20482;-79
2021/08/23 02:50:13;;;;;;;21.90;19.70;;;16.90;99.90;;;;;;4977297;28;20861;-78
2021/08/23 02:52:40;;;;;;;22.33;19.80;;;17.00;99.90;;;;;;4981134;28;20481;-78
2021/08/23 02:55:07;;;;;;;24.07;18.93;;;16.90;99.90;;;;;;4980729;28;20449;-78
2021/08/23 02:57:34;;;;;;;18.90;16.93;;;16.90;99.90;;;;;;4981068;28;20449;-78
2021/08/23 03:00:03;;;;;;;18.07;16.23;;;16.90;99.90;;;;;;4978303;28;20450;-79
2021/08/23 03:02:30;;;;;;;16.33;14.40;;;16.80;99.90;;;;;;4977360;28;20524;-79
2021/08/23 03:04:56;;;;;;;15.87;14.30;;;16.70;99.90;;;;;;4976839;28;20457;-79
2021/08/23 03:07:23;;;;;;;14.27;12.83;;;16.80;99.90;;;;;;4976719;28;20474;-79
2021/08/23 03:09:50;;;;;;;15.00;13.10;;;16.70;99.90;;;;;;4976164;28;20872;-79
2021/08/23 03:12:16;;;;;;;14.37;11.40;;;16.80;99.90;;;;;;4976715;28;20469;-78
2021/08/23 03:14:43;;;;;;;11.67;10.67;;;16.80;99.90;;;;;;4976761;28;20484;-79
2021/08/23 03:17:11;;;;;;;9.47;8.67;;;16.70;99.90;;;;;;4981223;28;20536;-79
2021/08/23 03:19:38;;;;;;;8.40;7.53;;;16.70;99.90;;;;;;4984077;28;20454;-79
2021/08/23 03:22:04;;;;;;;8.67;7.87;;;16.60;99.90;;;;;;4983912;28;20481;-79
2021/08/23 03:24:31;;;;;;;7.77;7.07;;;16.50;99.90;;;;;;4984079;28;20449;-79
2021/08/23 03:26:58;;;;;;;6.70;6.10;;;16.60;99.90;;;;;;4984053;28;20457;-79
2021/08/23 03:29:25;;;;;;;7.73;7.00;;;16.40;99.90;;;;;;4983744;28;20450;-79
2021/08/23 03:31:51;;;;;;;7.43;6.83;;;16.40;99.90;;;;;;4983780;28;20497;-79
2021/08/23 03:34:19;;;;;;;6.33;5.83;;;16.30;99.90;;;;;;5017150;22;20530;-82
2021/08/23 03:36:46;;;;;;;7.53;6.83;;;16.30;99.90;;;;;;5017563;28;20452;-82
2021/08/23 03:39:13;;;;;;;8.40;7.70;;;16.30;99.90;;;;;;5017678;28;20509;-81
2021/08/23 03:41:40;;;;;;;9.97;8.10;;;16.20;99.90;;;;;;5017360;28;20974;-83
2021/08/23 03:44:07;;;;;;;9.00;8.10;;;16.20;99.90;;;;;;5020618;28;20990;-81
2021/08/23 03:46:34;;;;;;;8.73;8.03;;;16.10;99.90;;;;;;5036183;28;20509;-80
2021/08/23 03:49:03;;;;;;;8.50;7.80;;;;;;;;;;5038910;28;20475;-80
2021/08/23 03:51:31;;;;;;;13.30;11.90;;;16.10;99.90;;;;;;5037189;28;20465;-80
2021/08/23 03:53:58;;;;;;;8.93;8.10;;;16.10;99.90;;;;;;5036176;28;20467;-80
2021/08/23 03:56:25;;;;;;;9.90;8.90;;;16.10;99.90;;;;;;5035696;28;20832;-81
2021/08/23 03:58:51;;;;;;;11.20;8.80;;;16.00;99.90;;;;;;5036625;28;20451;-80
2021/08/23 04:01:18;;;;;;;10.20;9.20;;;16.00;99.90;;;;;;5037213;28;20529;-80
2021/08/23 04:03:44;;;;;;;11.30;10.17;;;15.90;99.90;;;;;;5038043;28;20928;-80
2021/08/23 04:06:12;;;;;;;10.83;9.80;;;15.80;99.90;;;;;;5043275;28;20447;-80
2021/08/23 04:08:40;;;;;;;11.40;10.03;;;15.80;99.90;;;;;;5046118;28;20447;-79
2021/08/23 04:11:10;;;;;;;15.33;12.67;;;15.80;99.90;;;;;;5052452;28;20442;-79
2021/08/23 04:13:37;;;;;;;12.80;9.93;;;15.90;99.90;;;;;;5054126;28;20419;-80
2021/08/23 04:16:04;;;;;;;12.97;11.30;;;15.80;99.90;;;;;;5056023;28;20444;-80
2021/08/23 04:18:31;;;;;;;14.20;10.97;;;15.80;99.90;;;;;;5050817;28;20451;-81
2021/08/23 04:20:57;;;;;;;11.90;10.70;;;15.80;99.90;;;;;;5044650;28;20447;-81
2021/08/23 04:23:24;;;;;;;12.57;10.93;;;15.70;99.90;;;;;;5045130;28;20479;-81
2021/08/23 04:25:52;;;;;;;13.80;12.40;;;16.10;99.90;;;;;;5042577;28;20471;-82
2021/08/23 04:28:18;;;;;;;13.77;12.17;;;15.80;99.90;;;;;;5045476;28;20443;-81
2021/08/23 04:30:45;;;;;;;14.97;11.30;;;15.70;99.90;;;;;;5045820;28;20816;-80
2021/08/23 04:33:11;;;;;;;15.00;10.37;;;15.60;99.90;;;;;;5041793;28;20439;-81
2021/08/23 04:35:38;;;;;;;14.80;11.90;;;15.70;99.90;;;;;;5037204;28;20482;-81
2021/08/23 04:38:06;;;;;;;14.37;11.97;;;15.70;99.90;;;;;;5037066;28;21007;-81
2021/08/23 04:40:33;;;;;;;17.90;15.00;;;15.60;99.90;;;;;;5040977;28;20462;-81
2021/08/23 04:43:01;;;;;;;13.27;11.90;;;15.60;99.90;;;;;;5040800;28;21227;-80
2021/08/23 04:45:28;;;;;;;15.10;11.37;;;15.50;99.90;;;;;;5040102;28;20482;-79
2021/08/23 04:47:54;;;;;;;15.70;11.73;;;15.50;99.90;;;;;;5036877;28;20857;-80
2021/08/23 04:50:21;;;;;;;12.73;11.40;;;15.40;99.90;;;;;;5036264;28;20517;-82
2021/08/23 04:52:47;;;;;;;14.33;11.23;;;15.40;99.90;;;;;;5036786;28;20443;-81
2021/08/23 04:55:14;;;;;;;15.97;11.60;;;15.30;99.90;;;;;;5036623;28;20475;-81
2021/08/23 04:57:41;;;;;;;13.00;11.30;;;15.30;99.90;;;;;;5038654;28;20461;-82
2021/08/23 05:00:10;;;;;;;17.50;14.50;;;15.40;99.90;;;;;;5036795;28;20455;-81
2021/08/23 05:02:37;;;;;;;15.23;11.20;;;15.30;99.90;;;;;;5036342;28;20485;-81
2021/08/23 05:05:05;;;;;;;11.57;10.47;;;15.30;99.90;;;;;;5036440;28;20478;-81
2021/08/23 05:07:31;;;;;;;10.57;9.47;;;15.30;99.90;;;;;;5039231;28;20577;-81
2021/08/23 05:09:58;;;;;;;14.43;9.87;;;15.20;99.90;;;;;;5040993;28;20473;-81
2021/08/23 05:12:24;;;;;;;13.17;9.90;;;15.20;99.90;;;;;;5040624;28;20478;-80
2021/08/23 05:14:51;;;;;;;10.03;9.03;;;15.10;99.90;;;;;;5040168;28;20470;-81
2021/08/23 05:17:19;;;;;;;18.40;10.40;;;15.00;99.90;;;;;;5039829;28;20454;-81
2021/08/23 05:19:46;;;;;;;13.70;10.37;;;15.00;99.90;;;;;;5039682;28;20512;-80
2021/08/23 05:22:13;;;;;;;12.97;10.50;;;15.00;99.90;;;;;;5039585;28;20945;-80
2021/08/23 05:24:39;;;;;;;11.70;10.47;;;15.10;99.90;;;;;;5040018;28;20518;-82
2021/08/23 05:27:06;;;;;;;10.10;8.70;;;15.20;99.90;;;;;;5039628;28;20446;-82
2021/08/23 05:29:33;;;;;;;9.30;8.40;;;15.20;99.90;;;;;;5039574;28;20478;-81
2021/08/23 05:31:59;;;;;;;8.70;7.50;;;15.10;99.90;;;;;;5039884;28;20446;-81
2021/08/23 05:34:27;;;;;;;9.70;8.83;;;15.00;99.90;;;;;;5038957;28;20471;-80
2021/08/23 05:36:53;;;;;;;8.63;7.50;;;14.60;99.90;;;;;;5038676;28;20474;-81
2021/08/23 05:39:20;;;;;;;12.10;7.90;;;14.80;99.90;;;;;;5039577;28;20446;-81
2021/08/23 05:41:47;;;;;;;9.23;7.13;;;15.00;99.90;;;;;;5038747;28;20451;-80
2021/08/23 05:44:13;;;;;;;9.87;7.40;;;14.90;99.90;;;;;;5039008;28;20545;-81
2021/08/23 05:46:43;;;;;;;7.00;6.30;;;15.00;99.90;;;;;;5040565;28;20450;-81
2021/08/23 05:49:09;;;;;;;9.83;8.30;;;15.00;99.90;;;;;;5039105;28;20450;-82
2021/08/23 05:51:37;;;;;;;9.37;5.67;;;15.00;99.90;;;;;;5040741;28;20822;-82
2021/08/23 05:54:04;;;;;;;6.60;6.00;;;14.80;99.90;;;;;;5040192;28;20487;-81
2021/08/23 05:56:30;;;;;;;6.83;6.23;;;14.70;99.90;;;;;;5040202;28;20482;-81
2021/08/23 05:58:57;;;;;;;7.90;6.53;;;14.90;99.90;;;;;;5040603;28;20470;-81
2021/08/23 06:01:23;;;;;;;6.13;5.63;;;14.80;99.90;;;;;;5039733;28;20483;-81
2021/08/23 06:03:50;;;;;;;7.27;6.00;;;14.70;99.90;;;;;;5039023;28;20478;-82
2021/08/23 06:06:17;;;;;;;5.80;5.30;;;14.80;99.90;;;;;;5042252;28;20501;-81
2021/08/23 06:08:45;;;;;;;6.80;5.20;;;14.90;99.90;;;;;;5039242;28;20885;-81
2021/08/23 06:11:11;;;;;;;7.63;5.60;;;14.80;99.90;;;;;;5038970;28;20443;-81
2021/08/23 06:13:38;;;;;;;9.10;5.80;;;14.80;99.90;;;;;;5039623;28;20455;-79
2021/08/23 06:16:04;;;;;;;6.33;5.57;;;14.80;99.90;;;;;;5042573;28;20580;-81
2021/08/23 06:18:31;;;;;;;9.43;5.53;;;14.90;99.90;;;;;;5037371;28;20466;-81
2021/08/23 06:21:00;;;;;;;7.13;5.17;;;14.90;99.90;;;;;;5040208;28;20505;-81
2021/08/23 06:23:26;;;;;;;5.30;4.80;;;14.90;99.90;;;;;;5040228;28;20478;-81
2021/08/23 06:25:54;;;;;;;6.90;5.33;;;14.90;99.90;;;;;;5038840;28;20509;-82
2021/08/23 06:28:22;;;;;;;5.70;5.10;;;14.90;99.90;;;;;;5038922;28;20505;-81
2021/08/23 06:30:48;;;;;;;8.27;5.47;;;15.00;99.90;;;;;;5038554;28;20458;-81
2021/08/23 06:33:15;;;;;;;8.37;5.97;;;15.10;99.90;;;;;;5037814;28;20489;-80
2021/08/23 06:35:42;;;;;;;8.03;5.03;;;15.00;99.90;;;;;;5037526;28;20860;-82
2021/08/23 06:38:09;;;;;;;9.53;5.20;;;15.10;99.90;;;;;;5037974;28;20447;-81
2021/08/23 06:40:35;;;;;;;6.67;5.50;;;15.00;99.90;;;;;;5040767;28;20949;-82
2021/08/23 06:43:03;;;;;;;6.10;4.97;;;15.10;99.90;;;;;;5038784;28;20478;-81
2021/08/23 06:45:30;;;;;;;6.47;4.43;;;15.10;99.90;;;;;;5036107;28;20477;-80
2021/08/23 06:47:57;;;;;;;4.60;4.20;;;15.30;99.90;;;;;;5036532;28;20451;-80
2021/08/23 06:50:23;;;;;;;10.30;7.33;;;15.30;99.90;;;;;;5036421;28;20478;-80
2021/08/23 06:52:50;;;;;;;8.13;5.30;;;15.30;99.90;;;;;;5036159;28;20474;-80
2021/08/23 06:55:16;;;;;;;7.90;4.70;;;15.30;99.90;;;;;;5036652;28;20529;-80
2021/08/23 06:57:43;;;;;;;7.47;4.87;;;15.40;99.90;;;;;;5041044;28;20451;-80
2021/08/23 07:00:12;;;;;;;5.80;5.30;;;15.40;99.90;;;;;;5038094;28;20475;-81
2021/08/23 07:02:41;;;;;;;6.57;4.67;;;15.50;99.90;;;;;;5051677;28;20443;-81
2021/08/23 07:05:09;;;;;;;10.00;4.80;;;15.50;99.90;;;;;;5048848;28;20844;-81
2021/08/23 07:07:35;;;;;;;6.37;5.20;;;15.50;99.90;;;;;;5044196;28;20455;-81
2021/08/23 07:10:04;;;;;;;5.67;4.80;;;15.50;99.90;;;;;;5040989;28;20463;-82
2021/08/23 07:12:30;;;;;;;5.90;5.40;;;15.50;99.90;;;;;;5039388;28;20439;-82
2021/08/23 07:14:57;;;;;;;4.97;4.40;;;15.50;99.90;;;;;;5039594;28;20494;-81
2021/08/23 07:17:25;;;;;;;11.57;5.80;;;15.40;99.90;;;;;;5038481;28;20481;-81
2021/08/23 07:19:51;;;;;;;7.03;4.37;;;15.30;99.90;;;;;;5038484;28;20524;-81
2021/08/23 07:22:19;;;;;;;9.30;5.30;;;15.50;99.90;;;;;;5037871;28;20444;-81
2021/08/23 07:24:46;;;;;;;4.40;4.00;;;15.50;99.90;;;;;;5037462;28;20586;-79
2021/08/23 07:27:13;;;;;;;5.43;4.70;;;14.90;99.90;;;;;;5038617;28;20930;-80
2021/08/23 07:29:42;;;;;;;5.80;5.30;;;15.40;99.90;;;;;;5040630;28;20447;-80
2021/08/23 07:32:09;;;;;;;4.23;3.70;;;15.50;99.90;;;;;;5039113;28;20447;-81
2021/08/23 07:34:37;;;;;;;5.50;4.40;;;15.40;99.90;;;;;;5038690;28;20477;-79
2021/08/23 07:37:04;;;;;;;6.33;4.67;;;15.40;99.90;;;;;;5039522;28;20504;-81
2021/08/23 07:39:31;;;;;;;5.10;4.00;;;15.20;99.90;;;;;;5038450;28;20478;-81
2021/08/23 07:41:58;;;;;;;4.80;4.40;;;15.40;99.90;;;;;;5039620;28;20953;-81
2021/08/23 07:44:25;;;;;;;6.17;5.30;;;15.30;99.90;;;;;;5039791;28;20491;-82
2021/08/23 07:46:51;;;;;;;4.70;4.30;;;15.40;99.90;;;;;;5039541;28;20455;-81
2021/08/23 07:49:18;;;;;;;13.93;5.10;;;15.30;99.90;;;;;;5043167;28;20454;-82
2021/08/23 07:51:46;;;;;;;5.00;4.30;;;15.40;99.90;;;;;;5053496;28;20439;-81
2021/08/23 07:54:16;;;;;;;6.87;6.17;;;15.40;99.90;;;;;;5041440;28;20463;-80
2021/08/23 07:56:43;;;;;;;12.83;6.03;;;15.40;99.90;;;;;;5037968;28;20489;-80
2021/08/23 07:59:09;;;;;;;11.77;5.30;;;15.40;99.90;;;;;;5037974;28;20458;-81
2021/08/23 08:01:36;;;;;;;5.07;4.43;;;15.40;99.90;;;;;;5038060;28;20485;-80
2021/08/23 08:04:03;;;;;;;5.33;4.27;;;15.40;99.90;;;;;;5037995;28;20487;-80
2021/08/23 08:06:29;;;;;;;5.03;4.37;;;15.40;99.90;;;;;;5037969;28;20977;-80
2021/08/23 08:08:57;;;;;;;4.27;3.80;;;15.30;99.90;;;;;;5037732;28;20478;-83
2021/08/23 08:11:24;;;;;;;16.90;5.80;;;15.30;99.90;;;;;;5037823;28;20520;-81
2021/08/23 08:13:50;;;;;;;7.00;4.83;;;14.80;99.90;;;;;;5038188;28;20447;-81
2021/08/23 08:16:19;;;;;;;21.03;5.63;;;15.10;99.90;;;;;;5039647;28;20479;-80
2021/08/23 08:18:45;;;;;;;7.00;4.60;;;15.10;99.90;;;;;;5042391;28;20509;-79
2021/08/23 08:21:12;;;;;;;5.07;4.63;;;14.90;99.90;;;;;;5042828;28;20455;-82
2021/08/23 08:23:39;;;;;;;11.27;4.63;;;14.90;99.90;;;;;;5038073;28;20447;-81
2021/08/23 08:26:06;;;;;;;16.10;4.63;;;14.90;99.90;;;;;;5038745;28;20455;-81
2021/08/23 08:28:33;;;;;;;9.33;4.57;;;14.90;99.90;;;;;;5038595;28;20455;-81
2021/08/23 08:31:00;;;;;;;5.53;4.37;;;14.90;99.90;;;;;;5038094;28;20447;-81
2021/08/23 08:33:26;;;;;;;4.50;4.10;;;14.90;99.90;;;;;;5037997;28;20490;-80
2021/08/23 08:35:58;;;;;;;5.20;3.60;;;14.90;99.90;;;;;;5036921;28;20474;-81
2021/08/23 08:38:24;;;;;;;4.50;3.50;;;14.90;99.90;;;;;;5037242;28;20534;-82
2021/08/23 08:40:52;;;;;;;4.93;4.43;;;14.80;99.90;;;;;;5037442;28;20447;-81
2021/08/23 08:43:20;;;;;;;6.70;4.50;;;14.80;99.90;;;;;;5041026;28;20458;-81
2021/08/23 08:45:46;;;;;;;6.73;4.00;;;14.90;99.90;;;;;;5043854;28;21024;-81
2021/08/23 08:48:13;;;;;;;5.37;4.30;;;14.90;99.90;;;;;;5045825;28;20443;-80
2021/08/23 08:50:40;;;;;;;13.27;4.33;;;14.90;99.90;;;;;;5041419;28;20443;-80
2021/08/23 08:53:07;;;;;;;4.07;3.70;;;14.80;99.90;;;;;;5040382;28;20454;-82
2021/08/23 08:55:36;;;;;;;12.00;4.80;;;14.90;99.90;;;;;;5040310;28;20463;-81
2021/08/23 08:58:05;;;;;;;6.63;4.50;;;14.70;99.90;;;;;;5041223;28;20874;-81
2021/08/23 09:00:36;;;;;;;4.80;4.20;;;14.70;99.90;;;;;;5041999;28;20455;-80
2021/08/23 09:03:03;;;;;;;5.00;4.60;;;14.70;99.90;;;;;;5054929;28;20489;-80
2021/08/23 09:05:36;;;;;;;6.47;3.83;;;14.60;99.90;;;;;;5040929;28;20494;-80
2021/08/23 09:08:04;;;;;;;7.13;5.73;;;14.50;99.90;;;;;;5043504;28;20450;-80
2021/08/23 09:10:31;;;;;;;5.00;4.43;;;14.60;99.90;;;;;;5053407;28;20447;-80
2021/08/23 09:13:03;;;;;;;6.63;4.20;;;14.60;99.90;;;;;;5049798;28;20443;-80
2021/08/23 09:15:29;;;;;;;4.57;4.13;;;14.60;99.90;;;;;;5041217;28;20973;-81
2021/08/23 09:18:06;;;;;;;7.97;5.50;;;14.70;99.90;;;;;;5041547;28;20479;-81
2021/08/23 09:20:33;;;;;;;5.13;4.57;;;14.70;99.90;;;;;;5042393;28;20442;-80
2021/08/23 09:23:08;;;;;;;6.57;3.57;;;14.70;99.90;;;;;;5051364;28;20446;-81
2021/08/23 09:25:35;;;;;;;4.90;3.87;;;14.80;99.90;;;;;;5051889;28;20497;-81
2021/08/23 09:28:05;;;;;;;11.87;3.83;;;14.80;99.90;;;;;;5055696;28;20454;-81
2021/08/23 09:30:32;;;;;;;5.53;3.63;;;14.80;99.90;;;;;;5048139;28;20443;-82
2021/08/23 09:33:03;;;;;;;3.63;3.30;;;14.90;99.90;;;;;;5040596;28;20455;-82
2021/08/23 09:35:33;;;;;;;6.97;3.47;;;15.00;99.90;;;;;;5048871;22;20534;-79
2021/08/23 09:38:01;;;;;;;3.20;3.00;;;15.00;99.90;;;;;;5017984;28;20469;-77
2021/08/23 09:40:30;;;;;;;7.90;3.10;;;15.10;99.90;;;;;;5017863;28;20539;-78
2021/08/23 09:42:59;;;;;;;5.40;4.27;;;15.20;99.90;;;;;;5017983;28;20458;-79
2021/08/23 09:45:27;;;;;;;3.57;3.27;;;15.20;99.90;;;;;;5030366;28;21016;-79
2021/08/23 09:48:01;;;;;;;3.60;3.30;;;15.20;99.90;;;;;;5036615;28;20455;-77
2021/08/23 09:50:39;;;;;;;3.73;3.37;;;15.20;99.90;;;;;;5036685;28;20475;-78
2021/08/23 09:53:11;;;;;;;5.23;2.40;;;15.30;99.90;;;;;;5034752;28;20957;-78
2021/08/23 09:55:40;;;;;;;3.23;2.43;;;15.30;99.90;;;;;;5035935;28;20568;-78
2021/08/23 09:58:08;;;;;;;8.37;3.30;;;15.30;99.90;;;;;;5036171;28;20512;-78
2021/08/23 10:00:35;;;;;;;4.50;2.70;;;15.20;99.90;;;;;;5035724;28;20454;-78
2021/08/23 10:03:04;;;;;;;4.80;4.07;;;15.20;99.90;;;;;;5035752;28;20443;-78
2021/08/23 10:05:32;;;;;;;2.80;2.40;;;15.20;99.90;;;;;;5035928;28;20592;-78
2021/08/23 10:07:59;;;;;;;5.40;4.73;;;15.20;99.90;;;;;;5036303;28;20462;-78
2021/08/23 10:10:26;;;;;;;2.60;2.17;;;15.20;99.90;;;;;;5036506;28;20957;-78
2021/08/23 10:12:53;;;;;;;5.23;2.20;;;15.30;99.90;;;;;;5035586;28;20477;-77
2021/08/23 10:15:20;;;;;;;4.43;3.03;;;15.20;99.90;;;;;;5035748;28;20849;-77
2021/08/23 10:17:47;;;;;;;4.73;2.70;;;15.30;99.90;;;;;;5035720;28;20806;-78
2021/08/23 10:20:14;;;;;;;3.00;2.80;;;15.40;99.90;;;;;;5035631;28;20898;-78
2021/08/23 10:22:43;;;;;;;2.37;2.17;;;15.40;99.90;;;;;;5035334;28;20488;-78
2021/08/23 10:25:11;;;;;;;4.73;3.03;;;15.50;99.90;;;;;;5035792;28;20483;-78
2021/08/23 10:27:39;;;;;;;5.60;2.70;;;15.50;99.90;;;;;;5035772;28;20506;-78
2021/08/23 10:30:08;;;;;;;3.67;2.63;;;15.50;99.90;;;;;;5035819;28;20457;-78
2021/08/23 10:32:35;;;;;;;3.07;2.47;;;15.50;99.90;;;;;;5035740;28;20451;-78
2021/08/23 10:35:24;;;;;;;3.13;2.50;;;15.50;99.90;;;;;;5035139;28;20494;-78
2021/08/23 10:37:53;;;;;;;2.40;2.20;;;15.50;99.90;;;;;;5031626;28;20957;-77
2021/08/23 10:40:24;;;;;;;3.10;2.80;;;15.40;99.90;;;;;;5036290;28;20444;-77
2021/08/23 10:42:51;;;;;;;2.30;2.10;;;15.40;99.90;;;;;;5036730;28;20423;-78
2021/08/23 10:45:20;;;;;;;2.87;2.40;;;15.50;99.90;;;;;;5036513;28;21000;-79
2021/08/23 10:47:48;;;;;;;3.30;2.90;;;15.20;99.90;;;;;;5037134;28;20457;-78
2021/08/23 10:50:22;;;;;;;5.80;2.93;;;14.80;99.90;;;;;;5039425;28;20447;-77
2021/08/23 10:52:49;;;;;;;9.00;5.27;;;14.70;99.90;;;;;;5047610;28;20450;-77
2021/08/23 10:55:22;;;;;;;7.10;4.30;;;14.60;99.90;;;;;;5048687;28;20470;-78
2021/08/23 10:57:49;;;;;;;6.90;5.60;;;14.70;99.90;;;;;;5040444;28;20427;-78
2021/08/23 11:00:17;;;;;;;4.77;3.37;;;14.50;99.90;;;;;;5042634;28;20815;-79
2021/08/23 11:02:44;;;;;;;8.63;5.53;;;14.50;99.90;;;;;;5042296;28;20470;-78
2021/08/23 11:05:13;;;;;;;4.53;3.90;;;14.50;99.90;;;;;;5039240;28;20498;-78
2021/08/23 11:07:41;;;;;;;6.60;3.00;;;14.50;99.90;;;;;;5038079;28;20454;-78
2021/08/23 11:10:10;;;;;;;5.20;4.47;;;14.50;99.90;;;;;;5035272;28;20942;-78
2021/08/23 11:12:44;;;;;;;3.70;3.13;;;14.50;99.90;;;;;;5034710;28;20455;-79
2021/08/23 11:15:20;;;;;;;6.03;3.00;;;14.60;99.90;;;;;;5035054;28;20505;-78
2021/08/23 11:17:49;;;;;;;3.57;2.57;;;14.60;99.90;;;;;;5034802;28;20514;-77
2021/08/23 11:20:22;;;;;;;4.70;2.80;;;14.60;99.90;;;;;;5034646;28;20538;-78
2021/08/23 11:22:56;;;;;;;4.20;3.00;;;14.60;99.90;;;;;;5034540;28;20802;-77
2021/08/23 11:25:30;;;;;;;5.80;3.30;;;14.40;99.90;;;;;;5034435;28;20858;-79
2021/08/23 11:27:59;;;;;;;2.47;2.23;;;14.60;99.90;;;;;;5034993;28;20436;-78
2021/08/23 11:30:33;;;;;;;3.93;3.50;;;14.70;99.90;;;;;;5034732;28;20497;-78
2021/08/23 11:33:00;;;;;;;4.60;3.20;;;14.70;99.90;;;;;;5034253;28;20443;-77
2021/08/23 11:35:27;;;;;;;4.20;2.90;;;14.80;99.90;;;;;;5034232;28;20533;-78
2021/08/23 11:37:58;;;;;;;3.03;2.73;;;14.90;99.90;;;;;;5034828;28;20478;-77
2021/08/23 11:40:26;;;;;;;8.23;3.53;;;15.00;99.90;;;;;;5034823;28;20941;-77
2021/08/23 11:42:54;;;;;;;4.47;4.07;;;15.00;99.90;;;;;;5035235;28;20450;-77
2021/08/23 11:45:25;;;;;;;4.43;3.80;;;15.00;99.90;;;;;;5035162;28;20485;-77
2021/08/23 11:47:51;;;;;;;3.80;3.50;;;15.10;99.90;;;;;;5034710;28;20470;-77
2021/08/23 11:50:19;;;;;;;5.00;3.10;;;15.30;99.90;;;;;;5034262;28;20431;-77
2021/08/23 11:52:46;;;;;;;6.17;4.40;;;15.40;99.90;;;;;;5035507;28;20447;-77
2021/08/23 11:55:24;;;;;;;7.23;4.20;;;15.50;99.90;;;;;;5035759;28;20464;-78
2021/08/23 11:57:57;;;;;;;4.33;3.80;;;15.60;99.90;;;;;;5040491;28;20450;-78
2021/08/23 12:00:26;;;;;;;4.43;3.60;;;15.70;99.90;;;;;;5036890;28;20435;-78
2021/08/23 12:03:04;;;;;;;3.00;2.80;;;15.80;99.90;;;;;;5035311;28;20451;-79
2021/08/23 12:05:35;;;;;;;8.50;4.53;;;15.90;99.90;;;;;;5034336;28;20541;-78
2021/08/23 12:08:02;;;;;;;3.63;3.03;;;16.00;99.90;;;;;;5034452;28;20501;-79
2021/08/23 12:10:30;;;;;;;3.53;3.23;;;16.10;99.90;;;;;;5034192;28;20443;-79
2021/08/23 12:13:08;;;;;;;3.17;2.83;;;16.10;99.90;;;;;;5034408;28;20481;-78
2021/08/23 12:15:37;;;;;;;8.90;3.80;;;16.20;99.90;;;;;;5034849;28;20501;-78
2021/08/23 12:18:12;;;;;;;4.03;3.13;;;16.20;99.90;;;;;;5034692;28;20447;-78
2021/08/23 12:20:40;;;;;;;5.20;3.43;;;16.30;99.90;;;;;;5035520;28;20451;-78
2021/08/23 12:23:06;;;;;;;4.80;3.67;;;16.30;99.90;;;;;;5035147;28;20446;-77
2021/08/23 12:25:33;;;;;;;4.87;3.37;;;16.30;99.90;;;;;;5035536;28;20482;-78
2021/08/23 12:27:59;;;;;;;3.93;3.20;;;16.40;99.90;;;;;;5034498;28;20455;-78
2021/08/23 12:30:28;;;;;;;4.47;2.97;;;16.40;99.90;;;;;;5034285;28;20957;-77
2021/08/23 12:32:56;;;;;;;3.00;2.70;;;16.40;99.90;;;;;;5035263;28;20447;-77
2021/08/23 12:35:28;;;;;;;3.30;3.10;;;16.40;99.90;;;;;;5034826;28;20577;-78
2021/08/23 12:37:54;;;;;;;5.70;2.77;;;16.60;99.90;;;;;;5034620;28;20449;-78
2021/08/23 12:40:21;;;;;;;7.60;4.20;;;16.60;99.90;;;;;;5034516;28;20478;-78